createdAt,value
2022-12-07T00:01:48.817Z,47.17
2022-12-07T00:04:20.183Z,47.38
2022-12-07T00:06:53.742Z,47.21
2022-12-07T00:09:23.703Z,46.81
2022-12-07T00:11:53.595Z,46.92
2022-12-07T00:14:22.933Z,46.83
2022-12-07T00:16:52.377Z,46.60
2022-12-07T00:19:21.099Z,46.64
2022-12-07T00:21:49.477Z,46.69
2022-12-07T00:24:17.867Z,47.09
2022-12-07T00:26:47.613Z,46.95
2022-12-07T00:29:20.764Z,46.97
2022-12-07T00:31:49.634Z,46.70
2022-12-07T00:34:20.502Z,47.29
2022-12-07T00:36:49.836Z,47.20
2022-12-07T00:39:19.070Z,46.77
2022-12-07T00:41:48.805Z,47.18
2022-12-07T00:44:17.229Z,46.97
2022-12-07T00:46:46.480Z,46.88
2022-12-07T00:49:14.950Z,47.13
2022-12-07T00:51:43.261Z,47.41
2022-12-07T00:54:11.617Z,47.30
2022-12-07T00:56:39.976Z,47.20
2022-12-07T00:59:14.039Z,47.26
2022-12-07T01:01:42.603Z,47.29
2022-12-07T01:04:11.012Z,47.77
2022-12-07T01:06:39.349Z,47.41
2022-12-07T01:09:07.711Z,47.35
2022-12-07T01:11:36.085Z,47.42
2022-12-07T01:14:04.917Z,47.57
2022-12-07T01:16:35.549Z,47.58
2022-12-07T01:19:05.743Z,48.05
2022-12-07T01:21:38.367Z,48.09
2022-12-07T01:24:11.353Z,47.93
2022-12-07T01:26:40.195Z,48.29
2022-12-07T01:29:08.662Z,47.84
2022-12-07T01:31:38.471Z,48.19
2022-12-07T01:34:06.867Z,48.00
2022-12-07T01:36:37.827Z,48.04
2022-12-07T01:39:09.224Z,48.25
2022-12-07T01:41:41.475Z,48.42
2022-12-07T01:44:23.386Z,47.84
2022-12-07T01:46:55.576Z,48.36
2022-12-07T01:49:30.405Z,48.57
2022-12-07T01:52:09.900Z,48.10
2022-12-07T01:54:39.021Z,48.38
2022-12-07T01:57:10.331Z,48.19
2022-12-07T01:59:39.536Z,48.13
2022-12-07T02:02:20.500Z,48.13
2022-12-07T02:04:49.158Z,48.26
2022-12-07T02:07:18.429Z,48.01
2022-12-07T02:09:46.856Z,48.13
2022-12-07T02:12:15.483Z,48.24
2022-12-07T02:14:44.239Z,48.26
2022-12-07T02:17:27.208Z,47.86
2022-12-07T02:20:22.190Z,48.10
2022-12-07T02:23:18.071Z,48.12
2022-12-07T02:26:12.788Z,48.04
2022-12-07T02:29:11.373Z,48.16
2022-12-07T02:31:46.874Z,48.15
2022-12-07T02:34:28.392Z,47.99
2022-12-07T02:37:03.997Z,48.28
2022-12-07T02:39:44.046Z,47.93
2022-12-07T02:42:20.094Z,47.88
2022-12-07T02:44:50.389Z,47.84
2022-12-07T02:47:22.355Z,48.16
2022-12-07T02:49:52.582Z,48.15
2022-12-07T02:52:20.941Z,47.89
2022-12-07T02:54:49.278Z,48.10
2022-12-07T02:57:36.003Z,47.91
2022-12-07T03:00:10.176Z,48.26
2022-12-07T03:02:54.317Z,48.22
2022-12-07T03:05:44.621Z,48.17
2022-12-07T03:08:23.862Z,48.22
2022-12-07T03:11:00.334Z,47.84
2022-12-07T03:13:35.760Z,48.26
2022-12-07T03:16:15.011Z,48.34
2022-12-07T03:18:50.416Z,48.11
2022-12-07T03:21:24.718Z,47.64
2022-12-07T03:23:58.405Z,48.08
2022-12-07T03:26:34.484Z,47.96
2022-12-07T03:29:10.246Z,47.91
2022-12-07T03:31:45.337Z,48.24
2022-12-07T03:34:19.507Z,48.07
2022-12-07T03:36:52.930Z,48.29
2022-12-07T03:39:29.119Z,47.97
2022-12-07T03:41:59.302Z,47.85
2022-12-07T03:44:29.004Z,47.81
2022-12-07T03:47:06.482Z,47.80
2022-12-07T03:49:45.952Z,48.02
2022-12-07T03:52:24.375Z,47.83
2022-12-07T03:55:01.678Z,47.87
2022-12-07T03:57:32.563Z,48.01
2022-12-07T04:00:01.655Z,48.04
2022-12-07T04:02:31.995Z,48.20
2022-12-07T04:05:00.640Z,48.16
2022-12-07T04:07:29.129Z,48.05
2022-12-07T04:09:57.597Z,47.94
2022-12-07T04:12:26.553Z,47.83
2022-12-07T04:14:54.879Z,47.94
2022-12-07T04:17:23.275Z,48.16
2022-12-07T04:19:53.015Z,48.21
2022-12-07T04:22:21.372Z,48.27
2022-12-07T04:24:49.836Z,48.11
2022-12-07T04:27:18.177Z,47.82
2022-12-07T04:29:46.531Z,48.14
2022-12-07T04:32:14.924Z,47.80
2022-12-07T04:34:43.276Z,47.67
2022-12-07T04:37:13.013Z,47.70
2022-12-07T04:39:41.388Z,47.80
2022-12-07T04:42:09.793Z,47.76
2022-12-07T04:44:38.640Z,47.99
2022-12-07T04:47:07.313Z,47.88
2022-12-07T04:49:36.282Z,48.09
2022-12-07T04:52:04.781Z,48.03
2022-12-07T04:54:34.511Z,47.95
2022-12-07T04:57:02.926Z,47.77
2022-12-07T04:59:31.264Z,48.14
2022-12-07T05:01:59.604Z,47.73
2022-12-07T05:04:28.036Z,47.99
2022-12-07T05:06:56.372Z,47.70
2022-12-07T05:09:24.730Z,47.67
2022-12-07T05:11:54.437Z,48.04
2022-12-07T05:14:23.408Z,47.69
2022-12-07T05:16:54.541Z,47.60
2022-12-07T05:19:23.085Z,47.83
2022-12-07T05:21:51.423Z,47.99
2022-12-07T05:24:20.200Z,47.95
2022-12-07T05:26:49.152Z,47.61
2022-12-07T05:29:19.840Z,47.53
2022-12-07T05:31:48.422Z,47.49
2022-12-07T05:34:17.193Z,47.51
2022-12-07T05:36:45.536Z,47.72
2022-12-07T05:39:13.948Z,47.84
2022-12-07T05:41:59.848Z,47.48
2022-12-07T05:44:29.670Z,47.51
2022-12-07T05:46:58.056Z,47.82
2022-12-07T05:49:26.433Z,47.53
2022-12-07T05:51:54.802Z,47.54
2022-12-07T05:54:23.222Z,47.36
2022-12-07T05:56:51.603Z,47.54
2022-12-07T05:59:26.032Z,47.26
2022-12-07T06:01:58.151Z,47.72
2022-12-07T06:04:29.104Z,47.17
2022-12-07T06:06:57.867Z,47.26
2022-12-07T06:09:29.127Z,47.66
2022-12-07T06:12:15.539Z,47.24
2022-12-07T06:14:44.124Z,47.38
2022-12-07T06:17:15.027Z,47.50
2022-12-07T06:19:43.802Z,47.09
2022-12-07T06:22:13.216Z,46.93
2022-12-07T06:24:41.936Z,47.08
2022-12-07T06:27:10.840Z,46.94
2022-12-07T06:29:39.554Z,47.51
2022-12-07T06:32:08.045Z,47.26
2022-12-07T06:34:38.069Z,47.06
2022-12-07T06:37:06.431Z,47.26
2022-12-07T06:39:34.826Z,46.76
2022-12-07T06:42:03.239Z,46.97
2022-12-07T06:44:31.629Z,47.30
2022-12-07T06:47:24.937Z,47.07
2022-12-07T06:49:49.786Z,47.12
2022-12-07T06:52:18.148Z,46.80
2022-12-07T06:54:46.572Z,47.14
2022-12-07T06:57:14.923Z,47.08
2022-12-07T06:59:43.304Z,46.59
2022-12-07T07:02:11.930Z,46.64
2022-12-07T07:04:40.301Z,46.64
2022-12-07T07:07:10.133Z,46.63
2022-12-07T07:09:38.591Z,46.96
2022-12-07T07:12:07.159Z,46.66
2022-12-07T07:14:35.537Z,46.78
2022-12-07T07:17:03.978Z,46.96
2022-12-07T07:19:32.419Z,46.84
2022-12-07T07:22:00.820Z,46.83
2022-12-07T07:24:30.732Z,46.41
2022-12-07T07:26:59.153Z,46.10
2022-12-07T07:29:27.542Z,46.59
2022-12-07T07:31:55.947Z,46.64
2022-12-07T07:34:24.471Z,45.98
2022-12-07T07:36:52.877Z,46.31
2022-12-07T07:39:21.250Z,46.26
2022-12-07T07:41:51.060Z,46.46
2022-12-07T07:44:19.460Z,46.50
2022-12-07T07:46:47.873Z,46.60
2022-12-07T07:49:16.266Z,46.12
2022-12-07T07:51:44.671Z,46.58
2022-12-07T07:54:13.081Z,46.57
2022-12-07T07:56:41.509Z,46.54
2022-12-07T07:59:11.293Z,46.41
2022-12-07T08:01:39.755Z,46.03
2022-12-07T08:04:08.408Z,46.14
2022-12-07T08:06:37.040Z,46.11
2022-12-07T08:09:06.790Z,46.16
2022-12-07T08:11:35.222Z,46.19
2022-12-07T08:14:03.612Z,46.07
2022-12-07T08:16:33.582Z,46.00
2022-12-07T08:19:02.093Z,45.78
2022-12-07T08:21:30.534Z,45.90
2022-12-07T08:24:00.039Z,45.63
2022-12-07T08:26:28.554Z,45.81
2022-12-07T08:28:56.923Z,45.78
2022-12-07T08:31:25.431Z,45.89
2022-12-07T08:33:55.432Z,45.47
2022-12-07T08:36:23.966Z,45.78
2022-12-07T08:39:29.311Z,45.72
2022-12-07T08:41:41.397Z,45.75
2022-12-07T08:44:09.875Z,45.67
2022-12-07T08:46:41.547Z,45.43
2022-12-07T08:49:17.012Z,45.34
2022-12-07T08:51:45.721Z,44.96
2022-12-07T08:54:17.168Z,45.04
2022-12-07T08:56:46.362Z,44.81
2022-12-07T08:59:19.218Z,44.28
2022-12-07T09:01:47.742Z,44.10
2022-12-07T09:04:17.671Z,44.12
2022-12-07T09:06:46.309Z,44.34
2022-12-07T09:09:16.195Z,44.24
2022-12-07T09:11:46.307Z,43.99
2022-12-07T09:14:14.945Z,43.46
2022-12-07T09:16:43.425Z,43.39
2022-12-07T09:19:12.112Z,43.06
2022-12-07T09:21:41.960Z,42.85
2022-12-07T09:24:10.522Z,42.63
2022-12-07T09:26:40.416Z,43.15
2022-12-07T09:29:08.822Z,43.29
2022-12-07T09:31:39.703Z,43.35
2022-12-07T09:34:08.483Z,43.16
2022-12-07T09:36:37.074Z,43.37
2022-12-07T09:39:06.977Z,43.09
2022-12-07T09:41:39.337Z,43.43
2022-12-07T09:44:13.713Z,43.24
2022-12-07T09:46:45.315Z,43.31
2022-12-07T09:49:18.832Z,43.62
2022-12-07T09:51:48.017Z,43.47
2022-12-07T09:54:18.881Z,43.45
2022-12-07T09:56:47.412Z,43.31
2022-12-07T09:59:20.618Z,43.36
2022-12-07T10:01:51.990Z,43.60
2022-12-07T10:04:24.381Z,43.09
2022-12-07T10:06:53.342Z,42.22
2022-12-07T10:09:26.076Z,42.42
2022-12-07T10:12:06.923Z,42.60
2022-12-07T10:17:39.813Z,41.11
2022-12-07T10:20:22.588Z,41.72
2022-12-07T10:23:03.236Z,42.04
2022-12-07T10:25:36.321Z,42.19
2022-12-07T10:28:17.974Z,42.05
2022-12-07T10:31:00.366Z,40.03
2022-12-07T10:33:52.474Z,40.87
2022-12-07T10:36:25.396Z,39.04
2022-12-07T10:39:01.720Z,37.56
2022-12-07T10:41:31.848Z,37.17
2022-12-07T10:44:00.585Z,36.79
2022-12-07T10:47:14.895Z,37.80
2022-12-07T10:50:28.055Z,38.04
2022-12-07T10:53:25.965Z,38.03
2022-12-07T10:56:26.984Z,38.87
2022-12-07T10:59:24.478Z,39.37
2022-12-07T11:02:04.239Z,39.75
2022-12-07T11:04:41.157Z,39.80
2022-12-07T11:07:16.918Z,39.74
2022-12-07T11:10:09.360Z,39.33
2022-12-07T11:13:01.383Z,38.99
2022-12-07T11:15:45.207Z,39.04
2022-12-07T11:18:22.531Z,38.78
2022-12-07T11:21:02.988Z,39.22
2022-12-07T11:23:53.838Z,39.15
2022-12-07T11:26:43.522Z,38.76
2022-12-07T11:29:42.176Z,38.79
2022-12-07T11:32:22.624Z,38.96
2022-12-07T11:35:10.977Z,38.13
2022-12-07T11:40:22.443Z,38.18
2022-12-07T11:43:00.595Z,36.87
2022-12-07T11:45:32.802Z,37.48
2022-12-07T11:48:05.065Z,37.57
2022-12-07T11:50:40.813Z,37.44
2022-12-07T11:53:20.608Z,37.89
2022-12-07T11:55:54.999Z,37.92
2022-12-07T11:58:44.381Z,38.09
2022-12-07T12:01:41.493Z,37.51
2022-12-07T12:04:29.660Z,36.63
2022-12-07T12:06:58.473Z,36.73
2022-12-07T12:15:51.942Z,35.29
2022-12-07T12:18:45.126Z,34.24
2022-12-07T12:21:19.814Z,33.71
2022-12-07T12:23:53.848Z,30.79
2022-12-07T12:26:25.899Z,30.97
2022-12-07T12:28:59.893Z,29.96
2022-12-07T12:31:40.458Z,30.54
2022-12-07T12:34:45.394Z,31.67
2022-12-07T12:37:49.015Z,32.16
2022-12-07T12:40:50.031Z,32.21
2022-12-07T12:43:59.141Z,33.09
2022-12-07T12:46:50.285Z,34.09
2022-12-07T12:49:39.734Z,34.50
2022-12-07T12:52:56.608Z,34.97
2022-12-07T12:56:04.509Z,35.41
2022-12-07T12:58:43.229Z,35.82
2022-12-07T13:01:44.643Z,36.01
2022-12-07T13:04:51.003Z,36.26
2022-12-07T13:07:58.833Z,36.21
2022-12-07T13:10:45.721Z,36.70
2022-12-07T13:13:37.927Z,36.67
2022-12-07T13:16:42.652Z,36.69
2022-12-07T13:20:00.449Z,36.60
2022-12-07T13:22:54.651Z,37.11
2022-12-07T13:25:50.234Z,37.63
2022-12-07T13:28:21.126Z,36.70
2022-12-07T13:31:16.393Z,36.94
2022-12-07T13:33:47.303Z,36.85
2022-12-07T13:36:24.246Z,36.96
2022-12-07T13:38:56.948Z,37.05
2022-12-07T13:41:30.546Z,37.25
2022-12-07T13:44:11.534Z,37.28
2022-12-07T13:46:52.267Z,37.24
2022-12-07T13:49:24.685Z,37.58
2022-12-07T13:51:59.098Z,37.48
2022-12-07T13:54:27.659Z,38.05
2022-12-07T13:56:57.542Z,37.78
2022-12-07T13:59:28.298Z,38.03
2022-12-07T14:01:57.097Z,37.82
2022-12-07T14:04:36.764Z,37.78
2022-12-07T14:07:22.242Z,38.22
2022-12-07T14:10:02.829Z,38.43
2022-12-07T14:12:34.913Z,38.03
2022-12-07T14:15:04.641Z,38.36
2022-12-07T14:17:33.507Z,38.32
2022-12-07T14:20:02.985Z,38.24
2022-12-07T14:22:36.032Z,38.28
2022-12-07T14:25:26.403Z,38.59
2022-12-07T14:28:02.036Z,38.48
2022-12-07T14:30:32.949Z,38.53
2022-12-07T14:33:03.984Z,38.71
2022-12-07T14:35:33.872Z,39.09
2022-12-07T14:38:02.377Z,39.24
2022-12-07T14:40:32.444Z,39.25
2022-12-07T14:43:05.625Z,39.14
2022-12-07T14:45:34.241Z,39.36
2022-12-07T14:53:49.865Z,39.23
2022-12-07T14:56:21.765Z,39.41
2022-12-07T14:58:51.548Z,39.43
2022-12-07T15:01:19.955Z,39.91
2022-12-07T15:03:48.629Z,39.52
2022-12-07T15:06:19.722Z,39.96
2022-12-07T15:08:48.252Z,39.99
2022-12-07T15:11:18.823Z,39.87
2022-12-07T15:14:04.674Z,39.85
2022-12-07T15:16:59.600Z,39.62
2022-12-07T15:19:29.166Z,39.61
2022-12-07T15:21:59.395Z,39.88
2022-12-07T15:24:28.809Z,39.80
2022-12-07T15:26:57.253Z,39.76
2022-12-07T15:29:25.844Z,40.23
2022-12-07T15:31:57.765Z,40.06
2022-12-07T15:34:27.696Z,40.08
2022-12-07T15:36:56.316Z,39.88
2022-12-07T15:39:24.714Z,39.91
2022-12-07T15:41:53.140Z,40.05
2022-12-07T15:44:39.142Z,40.12
2022-12-07T15:47:08.974Z,40.17
2022-12-07T15:49:37.842Z,40.08
2022-12-07T15:52:06.474Z,40.34
2022-12-07T15:54:34.871Z,40.00
2022-12-07T15:57:03.353Z,40.23
2022-12-07T15:59:31.955Z,40.49
2022-12-07T16:02:00.529Z,40.19
2022-12-07T16:04:31.398Z,40.11
2022-12-07T16:06:59.930Z,40.54
2022-12-07T16:09:28.818Z,40.63
2022-12-07T16:11:57.634Z,40.57
2022-12-07T16:14:26.141Z,40.64
2022-12-07T16:16:54.709Z,40.45
2022-12-07T16:19:23.096Z,40.25
2022-12-07T16:21:52.966Z,40.59
2022-12-07T16:24:21.604Z,40.54
2022-12-07T16:26:50.656Z,40.35
2022-12-07T16:29:21.345Z,40.42
2022-12-07T16:31:50.701Z,40.48
2022-12-07T16:34:19.494Z,40.79
2022-12-07T16:37:03.710Z,40.68
2022-12-07T16:39:35.612Z,41.06
2022-12-07T16:42:04.350Z,40.88
2022-12-07T16:44:32.852Z,41.25
2022-12-07T16:47:01.979Z,41.41
2022-12-07T16:49:30.856Z,41.46
2022-12-07T16:52:18.620Z,41.44
2022-12-07T16:54:50.654Z,41.53
2022-12-07T16:57:23.290Z,41.58
2022-12-07T16:59:53.885Z,41.42
2022-12-07T17:02:22.748Z,41.65
2022-12-07T17:04:52.309Z,41.72
2022-12-07T17:07:20.913Z,41.57
2022-12-07T17:09:50.901Z,41.41
2022-12-07T17:12:20.088Z,41.89
2022-12-07T17:15:06.468Z,41.82
2022-12-07T17:17:35.146Z,41.53
2022-12-07T17:20:04.724Z,41.99
2022-12-07T17:22:33.202Z,41.78
2022-12-07T17:25:03.781Z,41.69
2022-12-07T17:27:33.060Z,41.68
2022-12-07T17:30:01.618Z,41.65
2022-12-07T17:32:30.861Z,41.59
2022-12-07T17:35:01.417Z,41.61
2022-12-07T17:37:31.143Z,41.89
2022-12-07T17:40:00.263Z,41.82
2022-12-07T17:42:43.683Z,41.58
2022-12-07T17:45:13.013Z,41.58
2022-12-07T17:47:42.970Z,41.92
2022-12-07T17:50:13.390Z,41.68
2022-12-07T17:53:00.946Z,42.01
2022-12-07T17:55:49.537Z,41.68
2022-12-07T17:58:23.006Z,41.70
2022-12-07T18:00:51.708Z,41.90
2022-12-07T18:03:21.032Z,41.93
2022-12-07T18:05:52.069Z,41.91
2022-12-07T18:08:21.341Z,42.11
2022-12-07T18:10:50.527Z,41.81
2022-12-07T18:13:37.285Z,42.12
2022-12-07T18:16:09.898Z,41.76
2022-12-07T18:18:39.679Z,42.01
2022-12-07T18:21:16.203Z,41.93
2022-12-07T18:23:48.450Z,42.15
2022-12-07T18:26:19.589Z,42.01
2022-12-07T18:28:49.336Z,41.91
2022-12-07T18:31:20.679Z,41.75
2022-12-07T18:33:50.531Z,42.02
2022-12-07T18:36:19.947Z,41.68
2022-12-07T18:38:50.071Z,41.59
2022-12-07T18:41:21.292Z,41.74
2022-12-07T18:43:51.297Z,41.58
2022-12-07T18:46:23.104Z,41.51
2022-12-07T18:48:53.383Z,41.43
2022-12-07T18:51:27.370Z,41.41
2022-12-07T18:54:00.822Z,41.77
2022-12-07T18:56:32.319Z,41.22
2022-12-07T18:59:21.160Z,41.25
2022-12-07T19:02:00.178Z,41.62
2022-12-07T19:04:30.129Z,41.54
2022-12-07T19:06:59.098Z,41.65
2022-12-07T19:09:28.625Z,41.24
2022-12-07T19:12:03.553Z,41.44
2022-12-07T19:14:37.545Z,41.13
2022-12-07T19:17:13.853Z,41.10
2022-12-07T19:19:46.094Z,40.84
2022-12-07T19:22:18.515Z,41.36
2022-12-07T19:24:52.160Z,41.35
2022-12-07T19:27:22.902Z,41.31
2022-12-07T19:29:52.453Z,40.98
2022-12-07T19:32:23.319Z,41.34
2022-12-07T19:34:53.743Z,40.88
2022-12-07T19:37:23.668Z,41.09
2022-12-07T19:39:53.868Z,41.14
2022-12-07T19:42:23.541Z,40.90
2022-12-07T19:44:53.245Z,40.61
2022-12-07T19:47:24.246Z,40.98
2022-12-07T19:49:55.818Z,40.99
2022-12-07T19:52:32.078Z,40.66
2022-12-07T19:55:06.222Z,40.91
2022-12-07T19:57:36.078Z,40.50
2022-12-07T20:00:07.199Z,40.77
2022-12-07T20:02:39.088Z,40.52
2022-12-07T20:05:11.486Z,40.55
2022-12-07T20:07:42.132Z,40.63
2022-12-07T20:10:13.239Z,40.45
2022-12-07T20:12:59.707Z,40.43
2022-12-07T20:15:29.280Z,40.31
2022-12-07T20:18:00.688Z,40.59
2022-12-07T20:20:30.681Z,40.19
2022-12-07T20:23:01.206Z,40.42
2022-12-07T20:25:30.600Z,40.48
2022-12-07T20:27:59.932Z,40.42
2022-12-07T20:30:29.975Z,40.23
2022-12-07T20:33:01.974Z,40.01
2022-12-07T20:35:32.886Z,40.64
2022-12-07T20:38:02.417Z,39.77
2022-12-07T20:40:35.526Z,39.64
2022-12-07T20:43:05.417Z,40.07
2022-12-07T20:45:34.867Z,40.13
2022-12-07T20:48:06.570Z,39.96
2022-12-07T20:50:42.031Z,39.93
2022-12-07T20:53:11.648Z,40.00
2022-12-07T20:55:40.654Z,39.85
2022-12-07T20:58:10.006Z,40.07
2022-12-07T21:00:39.155Z,40.43
2022-12-07T21:03:08.988Z,40.38
2022-12-07T21:05:37.849Z,40.12
2022-12-07T21:08:07.140Z,40.44
2022-12-07T21:10:36.168Z,40.43
2022-12-07T21:13:04.996Z,40.26
2022-12-07T21:15:33.712Z,40.54
2022-12-07T21:18:07.242Z,40.38
2022-12-07T21:20:37.802Z,40.34
2022-12-07T21:23:06.254Z,40.60
2022-12-07T21:25:35.192Z,40.59
2022-12-07T21:28:03.541Z,40.82
2022-12-07T21:30:50.660Z,40.82
2022-12-07T21:33:20.758Z,40.98
2022-12-07T21:35:50.588Z,40.71
2022-12-07T21:38:18.967Z,40.89
2022-12-07T21:40:47.553Z,40.96
2022-12-07T21:43:16.011Z,41.11
2022-12-07T21:45:44.489Z,40.89
2022-12-07T21:48:12.865Z,40.91
2022-12-07T21:50:41.210Z,41.17
2022-12-07T21:53:10.994Z,40.85
2022-12-07T21:55:41.519Z,40.97
2022-12-07T21:58:10.071Z,41.20
2022-12-07T22:00:39.060Z,41.10
2022-12-07T22:03:07.530Z,41.32
2022-12-07T22:05:37.317Z,41.25
2022-12-07T22:08:06.438Z,41.11
2022-12-07T22:10:36.240Z,41.28
2022-12-07T22:13:04.666Z,40.95
2022-12-07T22:15:32.060Z,41.32
2022-12-07T22:18:00.440Z,41.14
2022-12-07T22:20:28.829Z,41.00
2022-12-07T22:22:57.188Z,41.06
2022-12-07T22:25:25.573Z,41.22
2022-12-07T22:27:55.362Z,41.17
2022-12-07T22:30:23.775Z,41.18
2022-12-07T22:32:52.373Z,41.10
2022-12-07T22:35:20.912Z,41.21
2022-12-07T22:37:49.259Z,41.23
2022-12-07T22:40:17.674Z,41.19
2022-12-07T22:42:46.029Z,41.56
2022-12-07T22:45:16.174Z,41.35
2022-12-07T22:47:44.534Z,41.46
2022-12-07T22:50:13.195Z,41.20
2022-12-07T22:52:41.576Z,41.40
2022-12-07T22:55:11.805Z,41.46
2022-12-07T22:57:40.172Z,41.54
2022-12-07T23:00:11.465Z,41.36
2022-12-07T23:02:41.339Z,41.41
2022-12-07T23:05:11.045Z,41.24
2022-12-07T23:07:39.885Z,41.13
2022-12-07T23:10:10.736Z,41.28
2022-12-07T23:12:56.460Z,41.32
2022-12-07T23:15:24.820Z,41.55
2022-12-07T23:17:54.768Z,41.54
2022-12-07T23:20:23.258Z,41.16
2022-12-07T23:22:51.626Z,41.42
2022-12-07T23:25:20.128Z,41.19
2022-12-07T23:27:48.565Z,41.51
2022-12-07T23:30:17.571Z,41.32
2022-12-07T23:32:46.018Z,41.43
2022-12-07T23:35:15.799Z,41.46
2022-12-07T23:37:44.170Z,41.39
2022-12-07T23:40:12.896Z,41.42
2022-12-07T23:42:41.323Z,41.43
2022-12-07T23:45:11.088Z,41.18
2022-12-07T23:47:39.688Z,41.09
2022-12-07T23:50:10.688Z,41.08
2022-12-07T23:52:40.457Z,41.31
2022-12-07T23:55:10.440Z,41.33
2022-12-07T23:57:38.785Z,41.42
